createdAt,value
2022-10-04T04:02:45.956Z,6.41
2022-10-04T04:07:11.312Z,6.45
2022-10-04T04:11:27.445Z,6.54
2022-10-04T04:15:43.364Z,6.58
2022-10-04T04:20:02.267Z,6.54
2022-10-04T04:24:29.213Z,6.34
2022-10-04T04:28:49.012Z,6.43
2022-10-04T04:33:10.409Z,6.48
2022-10-04T04:37:21.950Z,6.44
2022-10-04T04:41:36.844Z,6.43
2022-10-04T04:46:08.546Z,6.52
2022-10-04T04:50:30.318Z,6.52
2022-10-04T04:54:41.832Z,6.50
2022-10-04T04:58:56.973Z,6.51
2022-10-04T05:03:18.469Z,6.45
2022-10-04T05:07:30.439Z,6.39
2022-10-04T05:11:42.183Z,6.41
2022-10-04T05:15:55.251Z,6.40
2022-10-04T05:20:07.276Z,6.34
2022-10-04T05:24:21.362Z,6.33
2022-10-04T05:28:33.198Z,6.34
2022-10-04T05:33:10.704Z,6.34
2022-10-04T05:37:25.283Z,6.58
2022-10-04T05:42:19.697Z,6.54
2022-10-04T05:46:35.633Z,6.44
2022-10-04T05:50:48.655Z,6.41
2022-10-04T05:55:12.194Z,6.34
2022-10-04T05:59:31.942Z,6.34
2022-10-04T06:03:52.509Z,6.27
2022-10-04T06:08:23.926Z,6.34
2022-10-04T06:12:44.440Z,6.35
2022-10-04T06:17:11.309Z,6.45
2022-10-04T06:21:28.458Z,6.45
2022-10-04T06:25:52.965Z,6.48
2022-10-04T06:30:16.564Z,6.50
2022-10-04T06:34:40.323Z,6.50
2022-10-04T06:39:09.417Z,6.43
2022-10-04T06:43:36.142Z,6.52
2022-10-04T06:48:21.874Z,6.43
2022-10-04T06:53:01.613Z,6.74
2022-10-04T06:57:35.570Z,6.79
2022-10-04T07:01:51.456Z,6.72
2022-10-04T07:06:05.354Z,6.74
2022-10-04T07:10:32.903Z,7.06
2022-10-04T07:14:53.039Z,7.41
2022-10-04T07:19:11.004Z,7.72
2022-10-04T07:23:32.221Z,7.72
2022-10-04T07:28:21.544Z,7.78
2022-10-04T07:32:38.740Z,8.06
2022-10-04T07:36:55.066Z,8.22
2022-10-04T07:41:20.849Z,8.52
2022-10-04T07:45:35.316Z,8.87
2022-10-04T07:49:50.861Z,8.84
2022-10-04T07:54:30.246Z,9.01
2022-10-04T07:59:08.630Z,9.20
2022-10-04T08:03:49.381Z,9.23
2022-10-04T08:08:19.673Z,9.26
2022-10-04T08:12:52.027Z,9.34
2022-10-04T08:17:30.570Z,9.47
2022-10-04T08:22:05.496Z,9.49
2022-10-04T08:26:59.297Z,9.36
2022-10-04T08:31:26.178Z,9.56
2022-10-04T08:35:56.214Z,9.59
2022-10-04T08:40:12.871Z,9.67
2022-10-04T08:44:34.224Z,9.68
2022-10-04T08:49:28.762Z,9.72
2022-10-04T08:53:49.173Z,9.75
2022-10-04T08:58:12.858Z,9.79
2022-10-04T09:02:58.388Z,10.13
2022-10-04T09:07:39.289Z,10.38
2022-10-04T09:12:32.535Z,10.47
2022-10-04T09:16:53.030Z,10.76
2022-10-04T09:21:14.339Z,10.92
2022-10-04T09:25:31.820Z,10.92
2022-10-04T09:29:55.527Z,11.08
2022-10-04T09:34:25.662Z,11.40
2022-10-04T09:39:28.294Z,11.69
2022-10-04T09:44:01.103Z,11.98
2022-10-04T09:48:25.335Z,12.26
2022-10-04T09:52:53.077Z,12.48
2022-10-04T09:57:39.281Z,12.38
2022-10-04T10:02:09.996Z,12.39
2022-10-04T10:06:46.584Z,12.44
2022-10-04T10:11:37.843Z,12.54
2022-10-04T10:16:04.684Z,12.74
2022-10-04T10:20:58.455Z,13.01
2022-10-04T10:25:34.367Z,13.34
2022-10-04T10:30:03.215Z,13.66
2022-10-04T10:34:36.049Z,13.96
2022-10-04T10:38:55.005Z,14.16
2022-10-04T10:43:37.818Z,14.38
2022-10-04T10:48:00.573Z,14.57
2022-10-04T10:52:18.181Z,14.76
2022-10-04T10:56:57.687Z,14.95
2022-10-04T11:01:28.065Z,15.06
2022-10-04T11:06:03.497Z,15.25
2022-10-04T11:10:36.545Z,15.38
2022-10-04T11:15:29.454Z,15.53
2022-10-04T11:19:40.943Z,15.65
2022-10-04T11:24:29.930Z,15.77
2022-10-04T11:28:50.599Z,15.82
2022-10-04T11:33:39.539Z,16.00
2022-10-04T11:38:16.077Z,16.21
2022-10-04T11:42:39.696Z,16.36
2022-10-04T11:47:04.501Z,16.46
2022-10-04T11:51:38.547Z,16.49
2022-10-04T11:56:19.462Z,16.57
2022-10-04T12:00:45.266Z,16.57
2022-10-04T12:05:33.027Z,16.64
2022-10-04T12:10:00.945Z,16.80
2022-10-04T12:14:29.318Z,16.97
2022-10-04T12:19:15.394Z,17.06
2022-10-04T12:23:33.063Z,17.11
2022-10-04T12:28:14.344Z,17.25
2022-10-04T12:32:34.298Z,17.33
2022-10-04T12:37:13.795Z,17.30
2022-10-04T12:41:48.882Z,17.35
2022-10-04T12:46:00.408Z,17.46
2022-10-04T12:50:39.415Z,17.61
2022-10-04T12:54:59.400Z,17.63
2022-10-04T12:59:39.891Z,17.80
2022-10-04T13:03:54.982Z,17.75
2022-10-04T13:08:30.643Z,17.71
2022-10-04T13:13:05.211Z,17.70
2022-10-04T13:17:50.000Z,17.69
2022-10-04T13:22:44.363Z,17.76
2022-10-04T13:27:16.067Z,17.74
2022-10-04T13:31:40.628Z,17.79
2022-10-04T13:36:05.348Z,17.80
2022-10-04T13:40:21.355Z,17.78
2022-10-04T13:44:43.970Z,17.82
2022-10-04T13:49:41.032Z,17.84
2022-10-04T13:54:37.064Z,17.85
2022-10-04T13:58:59.530Z,17.80
2022-10-04T14:03:48.207Z,17.92
2022-10-04T14:08:26.447Z,17.98
2022-10-04T14:13:24.370Z,17.94
2022-10-04T14:18:13.429Z,18.02
2022-10-04T14:23:07.313Z,17.93
2022-10-04T14:27:43.382Z,17.86
2022-10-04T14:32:32.335Z,17.77
2022-10-04T14:37:37.746Z,17.74
2022-10-04T14:42:01.268Z,17.67
2022-10-04T14:46:34.169Z,17.66
2022-10-04T14:51:16.762Z,17.69
2022-10-04T14:55:48.861Z,17.62
2022-10-04T15:00:18.839Z,17.63
2022-10-04T15:04:56.664Z,17.56
2022-10-04T15:09:26.420Z,17.51
2022-10-04T15:14:03.021Z,17.48
2022-10-04T15:18:28.112Z,17.46
2022-10-04T15:23:01.413Z,17.45
2022-10-04T15:27:31.465Z,17.37
2022-10-04T15:31:45.971Z,17.33
2022-10-04T15:35:57.544Z,17.23
2022-10-04T15:40:51.700Z,17.18
2022-10-04T15:45:18.355Z,17.15
2022-10-04T15:49:32.875Z,17.12
2022-10-04T15:53:47.166Z,17.07
2022-10-04T15:58:40.669Z,17.05
2022-10-04T16:03:17.725Z,16.94
2022-10-04T16:08:02.326Z,16.80
2022-10-04T16:12:22.944Z,16.78
2022-10-04T16:16:46.159Z,16.68
2022-10-04T16:21:25.727Z,16.61
2022-10-04T16:25:39.064Z,16.50
2022-10-04T16:30:26.554Z,16.33
2022-10-04T16:34:41.692Z,16.18
2022-10-04T16:39:15.354Z,16.07
2022-10-04T16:43:30.006Z,15.87
2022-10-04T16:47:47.505Z,15.66
2022-10-04T16:52:05.033Z,15.42
2022-10-04T16:56:23.425Z,15.04
2022-10-04T17:00:37.829Z,14.77
2022-10-04T17:05:14.190Z,14.50
2022-10-04T17:09:29.826Z,14.23
2022-10-04T17:13:50.848Z,14.04
2022-10-04T17:18:08.544Z,13.83
2022-10-04T17:22:48.077Z,13.61
2022-10-04T17:27:26.192Z,13.45
2022-10-04T17:31:51.917Z,13.33
2022-10-04T17:36:15.805Z,13.13
2022-10-04T17:40:41.321Z,13.07
2022-10-04T17:45:17.615Z,12.94
2022-10-04T17:50:12.931Z,12.81
2022-10-04T17:54:55.312Z,12.67
2022-10-04T17:59:31.104Z,12.55
2022-10-04T18:03:52.444Z,12.46
2022-10-04T18:08:15.187Z,12.30
2022-10-04T18:12:29.794Z,12.24
2022-10-04T18:16:56.484Z,12.13
2022-10-04T18:21:27.840Z,12.07
2022-10-04T18:25:41.369Z,11.97
2022-10-04T18:30:11.167Z,11.87
2022-10-04T18:34:31.135Z,11.81
2022-10-04T18:38:45.164Z,11.73
2022-10-04T18:43:00.208Z,11.65
2022-10-04T18:47:21.109Z,11.52
2022-10-04T18:51:53.843Z,11.46
2022-10-04T18:56:08.569Z,11.38
2022-10-04T19:00:38.731Z,11.33
2022-10-04T19:04:57.971Z,11.23
2022-10-04T19:09:48.186Z,11.19
2022-10-04T19:14:16.548Z,11.09
2022-10-04T19:18:30.925Z,11.00
2022-10-04T19:23:08.710Z,10.90
2022-10-04T19:27:27.062Z,10.81
2022-10-04T19:31:58.531Z,10.67
2022-10-04T19:36:23.041Z,10.66
2022-10-04T19:40:48.052Z,10.59
2022-10-04T19:45:12.068Z,10.49
2022-10-04T19:49:48.009Z,10.38
2022-10-04T19:54:29.310Z,10.36
2022-10-04T19:58:41.832Z,10.26
2022-10-04T20:02:53.492Z,10.19
2022-10-04T20:07:20.459Z,10.11
2022-10-04T20:11:38.664Z,10.04
2022-10-04T20:15:59.676Z,9.98
2022-10-04T20:20:39.506Z,9.91
2022-10-04T20:24:51.097Z,9.92
2022-10-04T20:29:03.035Z,9.83
2022-10-04T20:33:34.421Z,9.78
2022-10-04T20:38:13.897Z,9.67
2022-10-04T20:42:38.865Z,9.63
2022-10-04T20:46:50.921Z,9.56
2022-10-04T20:51:10.660Z,9.53
2022-10-04T20:55:29.574Z,9.47
2022-10-04T20:59:42.854Z,9.36
2022-10-04T21:04:11.457Z,9.30
2022-10-04T21:08:24.726Z,9.27
2022-10-04T21:12:36.153Z,9.23
2022-10-04T21:16:51.104Z,9.19
2022-10-04T21:21:03.033Z,9.13
2022-10-04T21:25:32.049Z,9.12
